createdAt,value
2018-05-23T00:01:25.566Z,14.1
2018-05-23T00:06:54.596Z,14
2018-05-23T00:12:24.627Z,14
2018-05-23T00:17:53.501Z,13.9
2018-05-23T00:23:22.628Z,13.9
2018-05-23T00:28:51.314Z,13.8
2018-05-23T00:34:20.211Z,13.7
2018-05-23T00:39:49.229Z,13.7
2018-05-23T00:45:18.509Z,13.6
2018-05-23T00:50:47.036Z,13.6
2018-05-23T00:56:15.866Z,13.5
2018-05-23T01:01:45.747Z,13.4
2018-05-23T01:07:14.622Z,13.3
2018-05-23T01:12:44.558Z,13.2
2018-05-23T01:18:14.343Z,13.1
2018-05-23T01:23:43.474Z,13
2018-05-23T01:29:12.111Z,12.9
2018-05-23T01:34:40.901Z,12.9
2018-05-23T01:40:09.704Z,12.9
2018-05-23T01:51:08.422Z,12.8
2018-05-23T01:56:37.272Z,12.7
2018-05-23T02:02:07.015Z,12.7
2018-05-23T02:07:36.923Z,12.7
2018-05-23T02:13:06.597Z,12.7
2018-05-23T02:18:35.365Z,12.7
2018-05-23T02:24:04.304Z,12.7
2018-05-23T02:29:33.962Z,12.6
2018-05-23T02:35:03.887Z,12.5
2018-05-23T02:40:32.579Z,12.5
2018-05-23T02:46:02.777Z,12.4
2018-05-23T02:51:32.112Z,12.4
2018-05-23T02:57:00.901Z,12.4
2018-05-23T03:02:29.664Z,12.4
2018-05-23T03:07:58.606Z,12.4
2018-05-23T03:13:27.227Z,12.4
2018-05-23T03:18:57.008Z,12.4
2018-05-23T03:24:25.727Z,12.4
2018-05-23T03:24:26.684Z,12.4
2018-05-23T03:29:55.520Z,12.4
2018-05-23T03:35:24.393Z,12.5
2018-05-23T03:40:53.155Z,12.5
2018-05-23T03:46:21.954Z,12.6
2018-05-23T03:51:50.824Z,12.6
2018-05-23T03:57:19.589Z,12.6
2018-05-23T04:02:49.279Z,12.6
2018-05-23T04:08:18.179Z,12.7
2018-05-23T04:13:46.934Z,12.7
2018-05-23T04:13:47.724Z,12.7
2018-05-23T04:19:15.721Z,12.8
2018-05-23T04:24:44.561Z,12.9
2018-05-23T04:30:14.336Z,13
2018-05-23T04:35:43.187Z,13.1
2018-05-23T04:41:13.103Z,13.2
2018-05-23T04:46:41.943Z,13.3
2018-05-23T04:52:10.851Z,13.4
2018-05-23T04:57:40.728Z,13.5
2018-05-23T05:03:10.574Z,13.6
2018-05-23T05:08:39.512Z,13.8
2018-05-23T05:14:08.351Z,13.9
2018-05-23T05:19:37.601Z,14
2018-05-23T05:25:07.425Z,14.2
2018-05-23T05:30:36.261Z,14.3
2018-05-23T05:36:05.183Z,14.5
2018-05-23T05:41:34.232Z,14.6
2018-05-23T05:47:03.313Z,14.7
2018-05-23T05:52:32.146Z,14.8
2018-05-23T05:58:02.259Z,14.9
2018-05-23T06:09:02.362Z,15.1
2018-05-23T06:14:32.248Z,15.2
2018-05-23T06:20:02.419Z,15.3
2018-05-23T06:25:31.396Z,15.5
2018-05-23T06:31:00.451Z,15.6
2018-05-23T06:36:29.629Z,15.7
2018-05-23T06:41:59.696Z,15.8
2018-05-23T06:47:28.802Z,16
2018-05-23T06:52:58.954Z,16.3
2018-05-23T06:52:59.982Z,16.3
2018-05-23T06:58:29.176Z,16.5
2018-05-23T07:03:58.519Z,16.7
2018-05-23T07:09:28.607Z,16.9
2018-05-23T07:14:58.923Z,17.1
2018-05-23T07:15:00.218Z,17.1
2018-05-23T07:20:29.100Z,17.3
2018-05-23T07:25:59.666Z,17.4
2018-05-23T07:31:29.642Z,17.6
2018-05-23T07:37:00.340Z,17.8
2018-05-23T07:42:30.261Z,17.9
2018-05-23T07:48:00.482Z,18.1
2018-05-23T07:53:30.908Z,18.3
2018-05-23T07:53:32.602Z,18.3
2018-05-23T07:59:00.496Z,18.6
2018-05-23T08:04:30.741Z,18.8
2018-05-23T08:10:01.119Z,19
2018-05-23T08:10:02.096Z,19
2018-05-23T08:15:31.998Z,19.1
2018-05-23T08:21:02.576Z,19.2
2018-05-23T08:26:31.532Z,19.4
2018-05-23T08:32:01.532Z,19.5
2018-05-23T08:32:02.110Z,19.5
2018-05-23T08:37:30.535Z,19.6
2018-05-23T08:38:01.078Z,19.6
2018-05-23T08:43:00.112Z,19.7
2018-05-23T08:48:29.927Z,19.8
2018-05-23T08:54:00.239Z,19.9
2018-05-23T08:54:00.877Z,19.9
2018-05-23T08:59:30.838Z,20
2018-05-23T09:05:01.993Z,20.1
2018-05-23T09:10:30.142Z,20.2
2018-05-23T09:10:42.205Z,20.2
2018-05-23T09:16:03.379Z,20.4
2018-05-23T09:21:30.451Z,20.5
2018-05-23T09:21:33.191Z,20.5
2018-05-23T09:27:01.343Z,20.7
2018-05-23T09:32:31.815Z,20.8
2018-05-23T09:38:04.661Z,20.9
2018-05-23T09:43:47.048Z,21
2018-05-23T09:49:02.895Z,21.1
2018-05-23T09:54:33.589Z,21.2
2018-05-23T10:00:03.351Z,21.4
2018-05-23T10:05:34.095Z,21.5
2018-05-23T10:11:05.092Z,21.5
2018-05-23T10:16:35.671Z,21.6
2018-05-23T10:22:05.408Z,21.7
2018-05-23T10:27:35.197Z,21.8
2018-05-23T10:33:04.933Z,21.9
2018-05-23T10:38:34.721Z,21.9
2018-05-23T10:44:04.772Z,22
2018-05-23T10:49:35.229Z,22.1
2018-05-23T10:55:05.085Z,22.1
2018-05-23T11:00:35.358Z,22.2
2018-05-23T11:06:04.723Z,22.3
2018-05-23T11:11:34.608Z,22.4
2018-05-23T11:17:04.594Z,22.5
2018-05-23T11:22:34.484Z,22.5
2018-05-23T11:28:05.541Z,22.6
2018-05-23T11:33:36.146Z,22.6
2018-05-23T11:39:05.920Z,22.7
2018-05-23T11:44:35.902Z,22.7
2018-05-23T11:50:06.182Z,22.8
2018-05-23T11:55:35.796Z,22.9
2018-05-23T12:01:07.308Z,23
2018-05-23T12:06:37.592Z,23.2
2018-05-23T12:12:07.667Z,23.2
2018-05-23T12:17:37.792Z,23.3
2018-05-23T12:17:38.641Z,23.3
2018-05-23T12:23:07.425Z,23.3
2018-05-23T12:34:09.351Z,23.4
2018-05-23T12:39:40.831Z,23.4
2018-05-23T12:50:41.396Z,23.5
2018-05-23T12:56:12.305Z,23.6
2018-05-23T13:01:43.356Z,23.6
2018-05-23T13:07:13.889Z,23.6
2018-05-23T13:12:44.366Z,23.7
2018-05-23T13:18:14.386Z,23.7
2018-05-23T13:23:44.397Z,23.8
2018-05-23T13:29:15.941Z,23.7
2018-05-23T13:34:45.413Z,23.8
2018-05-23T13:40:15.573Z,23.8
2018-05-23T13:51:18.134Z,23.9
2018-05-23T13:56:48.599Z,23.9
2018-05-23T14:02:18.810Z,23.9
2018-05-23T14:07:48.757Z,23.9
2018-05-23T14:13:20.139Z,24
2018-05-23T14:18:51.145Z,23.9
2018-05-23T14:24:20.913Z,23.8
2018-05-23T14:29:51.148Z,23.8
2018-05-23T14:35:22.326Z,23.8
2018-05-23T14:40:53.412Z,23.8
2018-05-23T14:46:23.979Z,23.8
2018-05-23T14:51:54.051Z,23.8
2018-05-23T14:57:25.098Z,23.9
2018-05-23T15:02:56.526Z,23.9
2018-05-23T15:08:26.389Z,23.9
2018-05-23T15:13:57.482Z,23.9
2018-05-23T15:19:27.395Z,23.9
2018-05-23T15:24:57.467Z,23.9
2018-05-23T15:30:27.423Z,23.9
2018-05-23T15:35:57.496Z,23.9
2018-05-23T15:41:27.570Z,23.8
2018-05-23T15:46:59.087Z,23.7
2018-05-23T15:52:28.837Z,23.6
2018-05-23T15:57:58.588Z,23.6
2018-05-23T16:03:28.692Z,23.5
2018-05-23T16:08:59.745Z,23.5
2018-05-23T16:14:30.706Z,23.5
2018-05-23T16:20:01.686Z,23.4
2018-05-23T16:25:31.919Z,23.4
2018-05-23T16:31:02.662Z,23.4
2018-05-23T16:36:32.621Z,23.3
2018-05-23T16:42:02.667Z,23.3
2018-05-23T16:47:32.999Z,23.3
2018-05-23T16:53:02.665Z,23.3
2018-05-23T16:58:33.653Z,23.2
2018-05-23T17:04:03.569Z,23.1
2018-05-23T17:09:33.855Z,23.1
2018-05-23T17:15:04.720Z,23
2018-05-23T17:20:35.801Z,22.9
2018-05-23T17:26:06.459Z,22.8
2018-05-23T17:31:36.413Z,22.6
2018-05-23T17:37:07.220Z,22.4
2018-05-23T17:42:38.193Z,22.3
2018-05-23T17:48:07.974Z,22.1
2018-05-23T17:53:37.770Z,22
2018-05-23T17:59:07.595Z,21.9
2018-05-23T18:04:38.467Z,21.8
2018-05-23T18:10:08.355Z,21.7
2018-05-23T18:15:38.553Z,21.6
2018-05-23T18:21:08.775Z,21.5
2018-05-23T18:26:39.589Z,21.3
2018-05-23T18:32:09.346Z,21.2
2018-05-23T18:37:40.534Z,21.1
2018-05-23T18:43:09.922Z,21
2018-05-23T18:48:39.620Z,20.9
2018-05-23T18:54:09.384Z,20.7
2018-05-23T18:59:40.052Z,20.6
2018-05-23T19:05:09.723Z,20.4
2018-05-23T19:10:39.464Z,20.3
2018-05-23T19:16:10.303Z,20.1
2018-05-23T19:21:40.663Z,19.9
2018-05-23T19:27:11.282Z,19.8
2018-05-23T19:32:42.101Z,19.7
2018-05-23T19:38:11.576Z,19.5
2018-05-23T19:43:42.088Z,19.4
2018-05-23T19:49:11.719Z,19.3
2018-05-23T19:54:41.275Z,19.1
2018-05-23T20:00:12.003Z,19
2018-05-23T20:05:42.165Z,18.9
2018-05-23T20:11:12.544Z,18.8
2018-05-23T20:16:42.475Z,18.6
2018-05-23T20:22:11.585Z,18.5
2018-05-23T20:27:41.396Z,18.4
2018-05-23T20:33:11.110Z,18.3
2018-05-23T20:38:40.689Z,18.3
2018-05-23T20:44:11.134Z,18.2
2018-05-23T20:49:41.641Z,18.2
2018-05-23T20:55:12.398Z,18.1
2018-05-23T21:00:41.418Z,18.1
2018-05-23T21:06:11.723Z,18
2018-05-23T21:11:42.143Z,18
2018-05-23T21:17:11.409Z,17.9
2018-05-23T21:22:41.830Z,17.9
2018-05-23T21:28:12.200Z,17.8
2018-05-23T21:33:42.510Z,17.7
2018-05-23T21:39:11.779Z,17.7
2018-05-23T21:44:42.527Z,17.6
2018-05-23T21:50:11.542Z,17.5
2018-05-23T21:55:40.821Z,17.5
2018-05-23T22:01:11.470Z,17.4
2018-05-23T22:06:40.597Z,17.4
2018-05-23T22:12:10.723Z,17.3
2018-05-23T22:17:40.009Z,17.3
2018-05-23T22:23:09.294Z,17.2
2018-05-23T22:28:38.589Z,17.2
2018-05-23T22:34:08.327Z,17.1
2018-05-23T22:39:38.238Z,17
2018-05-23T22:39:38.843Z,17
2018-05-23T22:45:07.410Z,17
2018-05-23T22:50:36.679Z,16.9
2018-05-23T22:56:07.128Z,16.9
2018-05-23T23:01:36.167Z,16.9
2018-05-23T23:07:06.527Z,16.8
2018-05-23T23:12:36.624Z,16.7
2018-05-23T23:18:06.857Z,16.6
2018-05-23T23:18:08.194Z,16.6
2018-05-23T23:23:36.107Z,16.5
2018-05-23T23:23:37.585Z,16.5
2018-05-23T23:29:05.500Z,16.4
2018-05-23T23:29:07.101Z,16.4
2018-05-23T23:34:35.648Z,16.4
2018-05-23T23:34:36.553Z,16.4
2018-05-23T23:40:04.593Z,16.3
2018-05-23T23:40:05.596Z,16.3
2018-05-23T23:45:34.798Z,16.2
2018-05-23T23:51:05.012Z,16.2
2018-05-23T23:56:35.108Z,16.1
